Time;durP1;ratioP1;P1;durP2;ratioP2;P2;SDS_P1;SDS_P2;PMS_P1;PMS_P2;Temp;Humidity;BMP_temperature;BMP_pressure;BME280_temperature;BME280_humidity;BME280_pressure;Samples;Min_cycle;Max_cycle;Signal;HPM_P1;HPM_P2
2022/05/15 00:00:37;;;;;;;11.95;5.95;;;11.70;99.90;;;;;;5035104;28;20033;-82
2022/05/15 00:00:37;;;;;;;9.90;5.75;;;11.70;99.90;;;;;;5072227;28;20073;-82
2022/05/15 00:03:03;;;;;;;11.52;5.78;;;11.60;99.90;;;;;;5072702;28;20500;-82
2022/05/15 00:05:29;;;;;;;9.95;5.25;;;11.60;99.90;;;;;;5072740;28;20021;-83
2022/05/15 00:07:56;;;;;;;9.50;5.80;;;11.60;99.90;;;;;;5054643;28;20078;-83
2022/05/15 00:10:22;;;;;;;7.00;5.30;;;11.60;99.90;;;;;;5072853;28;20025;-82
2022/05/15 00:12:48;;;;;;;12.07;5.38;;;11.50;99.90;;;;;;5072506;28;20107;-83
2022/05/15 00:15:13;;;;;;;11.15;6.43;;;11.50;99.90;;;;;;5055059;28;20072;-83
2022/05/15 00:17:39;;;;;;;9.43;5.95;;;11.40;99.90;;;;;;5072673;28;20108;-82
2022/05/15 00:20:05;;;;;;;7.82;5.43;;;11.40;99.90;;;;;;5072352;28;20032;-82
2022/05/15 00:22:35;;;;;;;16.20;6.13;;;11.40;99.90;;;;;;5072697;28;20075;-82
2022/05/15 00:25:04;;;;;;;10.23;5.63;;;11.30;99.90;;;;;;5072355;28;20028;-83
2022/05/15 00:27:30;;;;;;;9.82;5.75;;;11.30;99.90;;;;;;5072627;28;20029;-83
2022/05/15 00:29:55;;;;;;;7.45;5.20;;;11.20;99.90;;;;;;5072643;28;20425;-83
2022/05/15 00:32:21;;;;;;;9.57;5.90;;;11.20;99.90;;;;;;5072403;28;20389;-82
2022/05/15 00:34:47;;;;;;;8.45;5.38;;;11.20;99.90;;;;;;5054307;28;20428;-83
2022/05/15 00:37:12;;;;;;;10.90;5.63;;;11.20;99.90;;;;;;5075787;28;20036;-82
2022/05/15 00:39:38;;;;;;;10.73;5.45;;;11.10;99.90;;;;;;5076292;28;20020;-83
2022/05/15 00:42:11;;;;;;;9.80;5.47;;;11.10;99.90;;;;;;5076091;28;20024;-82
2022/05/15 00:44:36;;;;;;;13.05;6.38;;;11.10;99.90;;;;;;5076141;28;20028;-82
2022/05/15 00:47:02;;;;;;;10.50;6.00;;;11.10;99.90;;;;;;5058032;28;20039;-83
2022/05/15 00:49:31;;;;;;;9.48;5.85;;;11.10;99.90;;;;;;5076027;28;20381;-82
2022/05/15 00:52:01;;;;;;;8.38;5.45;;;11.00;99.90;;;;;;5076004;28;20373;-82
2022/05/15 00:54:32;;;;;;;8.33;6.00;;;11.00;99.90;;;;;;5057452;28;20024;-82
2022/05/15 00:57:19;;;;;;;9.05;5.68;;;11.00;99.90;;;;;;5066974;28;20086;-82
2022/05/15 01:00:12;;;;;;;10.27;5.60;;;11.00;99.90;;;;;;5038480;28;20028;-83
2022/05/15 01:02:42;;;;;;;8.20;5.47;;;10.90;99.90;;;;;;5037670;28;20501;-82
2022/05/15 01:05:10;;;;;;;12.83;6.00;;;10.90;99.90;;;;;;5038062;28;20053;-82
2022/05/15 01:07:35;;;;;;;10.02;5.57;;;10.90;99.90;;;;;;5055817;28;20029;-82
2022/05/15 01:10:05;;;;;;;8.73;5.60;;;10.90;99.90;;;;;;5037519;28;20075;-82
2022/05/15 01:12:31;;;;;;;6.90;5.18;;;10.80;99.90;;;;;;5055633;28;20021;-82
2022/05/15 01:14:57;;;;;;;10.47;6.10;;;10.80;99.90;;;;;;5055687;28;20029;-82
2022/05/15 01:17:23;;;;;;;6.93;5.18;;;10.80;99.90;;;;;;5055334;28;20028;-82
2022/05/15 01:19:48;;;;;;;8.40;5.30;;;10.80;99.90;;;;;;5056963;28;20020;-82
2022/05/15 01:22:15;;;;;;;7.97;5.03;;;10.80;99.90;;;;;;5075324;28;20024;-82
2022/05/15 01:24:44;;;;;;;10.43;5.88;;;10.70;99.90;;;;;;5075471;28;20492;-83
2022/05/15 01:27:12;;;;;;;8.50;6.33;;;10.70;99.90;;;;;;5075359;28;20025;-82
2022/05/15 01:29:44;;;;;;;11.63;5.70;;;10.70;99.90;;;;;;5057393;28;20054;-82
2022/05/15 01:32:11;;;;;;;10.27;5.67;;;10.70;99.90;;;;;;5075551;28;20492;-82
2022/05/15 01:34:40;;;;;;;7.20;5.43;;;10.70;99.90;;;;;;5075124;28;20029;-83
2022/05/15 01:37:07;;;;;;;8.83;5.40;;;10.60;99.90;;;;;;5075162;28;20031;-82
2022/05/15 01:39:33;;;;;;;9.07;5.73;;;10.60;99.90;;;;;;5057316;28;20024;-82
2022/05/15 01:41:59;;;;;;;9.33;4.90;;;10.50;99.90;;;;;;5057447;28;20017;-82
2022/05/15 01:44:25;;;;;;;11.43;5.17;;;10.50;99.90;;;;;;5074913;28;20534;-82
2022/05/15 01:46:51;;;;;;;7.40;5.07;;;10.50;99.90;;;;;;5074738;28;20033;-81
2022/05/15 01:49:17;;;;;;;8.13;5.30;;;10.50;99.90;;;;;;5056386;28;20374;-82
2022/05/15 01:51:43;;;;;;;11.57;5.57;;;10.50;99.90;;;;;;5056870;28;20060;-82
2022/05/15 01:54:10;;;;;;;10.37;5.90;;;10.40;99.90;;;;;;5074792;28;20032;-82
2022/05/15 01:56:36;;;;;;;10.50;5.50;;;10.40;99.90;;;;;;5074309;28;20055;-82
2022/05/15 01:59:03;;;;;;;9.37;5.20;;;10.40;99.90;;;;;;5056984;28;20024;-82
2022/05/15 02:01:29;;;;;;;6.57;5.20;;;10.40;99.90;;;;;;5074862;28;20024;-82
2022/05/15 02:03:54;;;;;;;9.30;5.10;;;10.30;99.90;;;;;;5074617;28;20453;-82
2022/05/15 02:06:20;;;;;;;8.40;5.40;;;10.30;99.90;;;;;;5074240;28;20107;-82
2022/05/15 02:08:48;;;;;;;11.77;5.63;;;10.30;99.90;;;;;;5074673;28;20433;-82
2022/05/15 02:11:13;;;;;;;7.20;5.53;;;10.30;99.90;;;;;;5056468;28;20533;-82
2022/05/15 02:13:39;;;;;;;14.43;5.40;;;10.30;99.90;;;;;;5074480;28;20100;-84
2022/05/15 02:16:05;;;;;;;9.77;5.20;;;10.20;99.90;;;;;;5056620;28;20031;-82
2022/05/15 02:18:31;;;;;;;7.47;5.17;;;10.20;99.90;;;;;;5056343;28;20024;-82
2022/05/15 02:20:56;;;;;;;11.50;6.20;;;10.20;99.90;;;;;;5074317;28;20027;-82
2022/05/15 02:23:22;;;;;;;9.07;5.30;;;10.20;99.90;;;;;;5074173;28;20118;-82
2022/05/15 02:25:48;;;;;;;12.13;5.70;;;10.20;99.90;;;;;;5056134;28;20016;-82
2022/05/15 02:28:14;;;;;;;9.50;5.30;;;10.20;99.90;;;;;;5074191;28;20078;-82
2022/05/15 02:30:40;;;;;;;7.60;4.67;;;10.20;99.90;;;;;;5056146;28;20028;-82
2022/05/15 02:33:05;;;;;;;7.73;4.93;;;10.20;99.90;;;;;;5073889;28;20457;-82
2022/05/15 02:35:32;;;;;;;8.97;5.13;;;10.20;99.90;;;;;;5056151;28;20052;-81
2022/05/15 02:37:58;;;;;;;9.17;5.00;;;10.20;99.90;;;;;;5052676;28;20029;-82
2022/05/15 02:40:25;;;;;;;11.80;5.73;;;10.10;99.90;;;;;;5052719;28;20098;-82
2022/05/15 02:42:53;;;;;;;8.70;4.93;;;10.10;99.90;;;;;;5036006;28;20055;-82
2022/05/15 02:45:18;;;;;;;10.57;5.10;;;10.10;99.90;;;;;;5073668;28;20123;-82
2022/05/15 02:47:45;;;;;;;8.23;5.10;;;10.00;99.90;;;;;;5073854;28;20222;-82
2022/05/15 02:52:55;;;;;;;10.10;4.80;;;9.90;99.90;;;;;;5073758;28;20055;-82
2022/05/15 02:55:23;;;;;;;9.63;4.60;;;9.90;99.90;;;;;;5043481;28;20040;-82
2022/05/15 02:57:50;;;;;;;7.70;5.70;;;9.90;99.90;;;;;;5035532;28;20473;-82
2022/05/15 03:00:17;;;;;;;9.33;4.80;;;9.90;99.90;;;;;;5035662;28;20029;-82
2022/05/15 03:02:42;;;;;;;10.97;5.10;;;9.90;99.90;;;;;;5053360;28;20481;-82
2022/05/15 03:05:11;;;;;;;6.77;5.00;;;9.80;99.90;;;;;;5052386;28;20028;-82
2022/05/15 03:07:37;;;;;;;12.33;5.50;;;9.80;99.90;;;;;;5053471;28;20107;-82
2022/05/15 03:10:04;;;;;;;10.13;5.20;;;9.80;99.90;;;;;;5053363;28;20025;-82
2022/05/15 03:12:29;;;;;;;7.77;4.63;;;9.80;99.90;;;;;;5053552;28;20187;-82
2022/05/15 03:14:55;;;;;;;7.30;4.73;;;9.80;99.90;;;;;;5053166;28;20091;-82
2022/05/15 03:17:21;;;;;;;5.77;4.90;;;9.70;99.90;;;;;;5058852;28;20076;-82
2022/05/15 03:19:47;;;;;;;7.10;4.60;;;9.70;99.90;;;;;;5073463;28;20031;-82
2022/05/15 03:22:12;;;;;;;8.27;5.37;;;9.70;99.90;;;;;;5072248;28;20025;-82
2022/05/15 03:24:38;;;;;;;11.63;5.53;;;9.60;99.90;;;;;;5055239;28;20099;-82
2022/05/15 03:27:04;;;;;;;9.43;4.97;;;9.60;99.90;;;;;;5055131;28;20027;-82
2022/05/15 03:29:30;;;;;;;6.30;5.40;;;9.60;99.90;;;;;;5073081;28;20184;-82
2022/05/15 03:31:56;;;;;;;6.47;5.00;;;9.50;99.90;;;;;;5072966;28;20024;-82
2022/05/15 03:34:22;;;;;;;5.67;4.77;;;9.50;99.90;;;;;;5072980;28;20074;-82
2022/05/15 03:36:51;;;;;;;8.13;5.47;;;9.50;99.90;;;;;;5072881;28;20021;-82
2022/05/15 03:39:21;;;;;;;6.57;4.80;;;9.50;99.90;;;;;;5072668;28;20049;-82
2022/05/15 03:41:48;;;;;;;8.90;5.50;;;9.50;99.90;;;;;;5071244;28;20013;-82
2022/05/15 03:44:14;;;;;;;8.80;5.10;;;9.40;99.90;;;;;;5070992;28;20025;-82
2022/05/15 03:46:40;;;;;;;8.93;4.67;;;9.40;99.90;;;;;;5071186;28;20060;-82
2022/05/15 03:49:06;;;;;;;6.87;5.20;;;9.40;99.90;;;;;;5071564;28;20036;-82
2022/05/15 03:51:33;;;;;;;7.37;4.63;;;9.40;99.90;;;;;;5071543;28;20063;-84
2022/05/15 03:53:58;;;;;;;8.07;5.43;;;9.30;99.90;;;;;;5069748;28;20033;-82
2022/05/15 03:59:11;;;;;;;6.15;4.80;;;9.30;99.90;;;;;;5063397;28;20131;-82
2022/05/15 04:01:36;;;;;;;7.77;4.80;;;9.40;99.90;;;;;;5057262;28;20039;-82
2022/05/15 04:04:02;;;;;;;7.47;5.00;;;9.30;99.90;;;;;;5047673;28;20046;-82
2022/05/15 04:06:28;;;;;;;6.17;4.57;;;9.40;99.90;;;;;;5072193;28;20020;-82
2022/05/15 04:08:54;;;;;;;7.90;3.93;;;9.40;99.90;;;;;;5072192;28;20175;-82
2022/05/15 04:11:19;;;;;;;8.70;4.53;;;9.40;99.90;;;;;;5072114;28;20016;-82
2022/05/15 04:13:45;;;;;;;6.23;3.93;;;9.50;99.90;;;;;;5061284;28;20071;-82
2022/05/15 04:16:11;;;;;;;8.27;4.30;;;9.40;99.90;;;;;;5071703;28;20039;-82
2022/05/15 04:18:37;;;;;;;10.23;4.70;;;9.50;99.90;;;;;;5072415;28;20447;-81
2022/05/15 04:21:02;;;;;;;6.90;4.50;;;9.50;99.90;;;;;;5072717;28;20103;-82
2022/05/15 04:23:29;;;;;;;9.03;4.80;;;9.50;99.90;;;;;;5072624;28;20048;-82
2022/05/15 04:25:54;;;;;;;6.07;4.30;;;9.50;99.90;;;;;;5054210;28;20577;-82
2022/05/15 04:28:20;;;;;;;7.20;5.00;;;9.50;99.90;;;;;;5054748;28;20016;-82
2022/05/15 04:30:45;;;;;;;8.13;4.50;;;9.50;99.90;;;;;;5044404;28;20112;-82
2022/05/15 04:33:11;;;;;;;6.53;4.50;;;9.60;99.90;;;;;;5065931;28;20492;-82
2022/05/15 04:35:36;;;;;;;6.73;4.47;;;9.60;99.90;;;;;;5072502;28;20441;-82
2022/05/15 04:38:02;;;;;;;7.60;4.17;;;9.60;99.90;;;;;;5072172;28;20077;-82
2022/05/15 04:40:28;;;;;;;7.67;4.70;;;9.70;99.90;;;;;;5056590;28;20117;-82
2022/05/15 04:42:53;;;;;;;6.00;4.37;;;9.70;99.90;;;;;;5071548;28;20020;-82
2022/05/15 04:45:19;;;;;;;6.10;4.40;;;9.70;99.90;;;;;;5068921;28;20047;-82
2022/05/15 04:47:50;;;;;;;6.97;4.90;;;9.80;99.90;;;;;;5034301;28;20024;-82
2022/05/15 04:50:21;;;;;;;6.20;4.50;;;9.90;99.90;;;;;;5057667;28;20060;-82
2022/05/15 04:52:48;;;;;;;6.87;4.67;;;10.00;99.90;;;;;;5072222;28;20385;-82
2022/05/15 04:55:15;;;;;;;5.60;4.23;;;10.10;99.90;;;;;;5053917;28;20035;-82
2022/05/15 04:57:40;;;;;;;5.53;4.00;;;10.20;99.90;;;;;;5067054;28;20804;-82
2022/05/15 05:00:22;;;;;;;6.73;4.20;;;10.30;99.90;;;;;;5071108;28;20017;-82
2022/05/15 05:02:48;;;;;;;7.10;4.40;;;10.40;99.90;;;;;;5072022;28;20023;-82
2022/05/15 05:05:15;;;;;;;7.60;4.80;;;10.60;99.90;;;;;;5066758;28;20095;-82
2022/05/15 05:07:43;;;;;;;6.93;4.57;;;10.60;99.90;;;;;;5072222;28;20025;-82
2022/05/15 05:10:12;;;;;;;8.77;4.70;;;10.70;99.90;;;;;;5066246;28;20107;-82
2022/05/15 05:12:40;;;;;;;10.20;4.53;;;10.80;99.90;;;;;;5061741;28;20025;-82
2022/05/15 05:15:13;;;;;;;6.20;4.47;;;10.90;99.90;;;;;;5060130;28;20417;-81
2022/05/15 05:17:42;;;;;;;7.73;4.97;;;10.90;99.90;;;;;;5060264;28;20492;-82
2022/05/15 05:20:10;;;;;;;6.23;4.63;;;11.00;99.90;;;;;;5061712;28;20017;-87
2022/05/15 05:22:35;;;;;;;7.37;4.63;;;11.10;99.90;;;;;;5068988;28;20052;-87
2022/05/15 05:25:04;;;;;;;8.00;4.63;;;11.20;99.90;;;;;;5053583;28;20059;-87
2022/05/15 05:27:30;;;;;;;6.40;4.70;;;11.30;99.90;;;;;;5065857;28;20082;-87
2022/05/15 05:29:55;;;;;;;6.70;4.27;;;11.40;99.90;;;;;;5059070;28;20556;-86
2022/05/15 05:32:21;;;;;;;6.82;4.38;;;11.60;99.90;;;;;;5042545;28;20028;-84
2022/05/15 05:34:46;;;;;;;6.05;4.43;;;11.70;99.90;;;;;;5073785;28;20167;-86
2022/05/15 05:37:15;;;;;;;9.57;4.40;;;11.90;99.90;;;;;;5065110;28;20108;-86
2022/05/15 05:39:40;;;;;;;5.55;4.32;;;12.00;99.90;;;;;;5066583;28;20151;-85
2022/05/15 05:42:06;;;;;;;7.97;4.82;;;12.20;99.90;;;;;;5063994;28;20100;-86
2022/05/15 05:44:31;;;;;;;6.60;4.85;;;12.40;99.90;;;;;;5052130;28;20055;-86
2022/05/15 05:46:57;;;;;;;8.85;4.60;;;12.50;99.90;;;;;;5074025;28;20028;-86
2022/05/15 05:49:23;;;;;;;10.13;4.93;;;12.70;99.90;;;;;;5073852;28;20036;-86
2022/05/15 05:51:48;;;;;;;7.65;5.13;;;12.90;99.90;;;;;;5035899;28;20049;-87
2022/05/15 05:54:14;;;;;;;7.97;4.63;;;13.10;99.90;;;;;;5031705;28;20467;-86
2022/05/15 05:56:39;;;;;;;8.25;4.60;;;13.30;99.90;;;;;;5015242;28;20062;-86
2022/05/15 05:59:05;;;;;;;9.55;4.28;;;13.50;99.90;;;;;;5013640;28;20076;-86
2022/05/15 06:01:30;;;;;;;8.70;4.57;;;13.70;99.90;;;;;;5015182;28;20034;-85
2022/05/15 06:06:40;;;;;;;5.80;3.55;;;14.20;99.90;;;;;;5035154;28;20031;-87
2022/05/15 06:09:05;;;;;;;6.47;3.60;;;14.40;99.90;;;;;;5033374;28;20112;-86
2022/05/15 06:11:31;;;;;;;4.88;3.95;;;14.60;99.90;;;;;;5034696;28;20125;-84
2022/05/15 06:13:57;;;;;;;8.48;4.60;;;14.80;99.90;;;;;;5034473;28;20056;-84
2022/05/15 06:16:22;;;;;;;6.65;4.22;;;15.00;99.90;;;;;;5034681;28;20488;-84
2022/05/15 06:18:48;;;;;;;5.93;4.32;;;15.20;99.90;;;;;;5034259;28;20030;-84
2022/05/15 06:21:14;;;;;;;10.27;4.70;;;15.30;99.90;;;;;;5033701;28;20390;-84
2022/05/15 06:23:39;;;;;;;5.88;4.32;;;15.40;99.90;;;;;;5032888;28;20018;-84
2022/05/15 06:26:05;;;;;;;7.70;4.70;;;15.50;99.90;;;;;;5034334;28;20083;-84
2022/05/15 06:28:34;;;;;;;10.73;5.05;;;15.60;99.90;;;;;;5033331;28;20021;-84
2022/05/15 06:31:00;;;;;;;7.13;4.05;;;15.70;99.90;;;;;;5029085;28;20027;-84
2022/05/15 06:33:26;;;;;;;6.88;4.82;;;15.70;99.90;;;;;;5034330;28;20485;-72
2022/05/15 06:35:51;;;;;;;7.20;4.68;;;15.80;99.90;;;;;;5034854;28;20021;-71
2022/05/15 06:38:17;;;;;;;5.05;4.05;;;15.90;99.90;;;;;;5034427;28;20017;-84
2022/05/15 06:40:42;;;;;;;6.30;4.32;;;16.10;99.90;;;;;;5034118;28;20075;-84
2022/05/15 06:43:09;;;;;;;7.00;4.40;;;16.20;99.90;;;;;;5032170;28;20049;-86
2022/05/15 06:45:35;;;;;;;7.63;4.32;;;16.30;99.90;;;;;;5027516;28;20053;-86
2022/05/15 06:48:01;;;;;;;8.93;4.53;;;16.40;99.90;;;;;;5032580;28;20029;-86
2022/05/15 06:50:26;;;;;;;7.25;5.00;;;16.50;99.90;;;;;;5046284;28;20091;-83
2022/05/15 06:52:52;;;;;;;7.05;4.53;;;16.50;99.90;;;;;;5073548;28;20066;-83
2022/05/15 06:55:19;;;;;;;9.18;4.43;;;16.50;99.90;;;;;;5069092;28;20028;-83
2022/05/15 06:57:48;;;;;;;7.82;4.57;;;16.60;99.90;;;;;;5055259;28;20476;-83
2022/05/15 07:00:18;;;;;;;8.68;4.50;;;16.60;99.90;;;;;;5073502;28;20373;-84
2022/05/15 07:02:46;;;;;;;7.03;4.00;;;16.70;99.90;;;;;;5073448;28;20793;-84
2022/05/15 07:05:14;;;;;;;7.63;4.50;;;16.80;99.90;;;;;;5072428;28;20024;-79
2022/05/15 07:07:40;;;;;;;6.78;4.20;;;16.90;99.90;;;;;;5067654;28;20037;-80
2022/05/15 07:10:06;;;;;;;11.63;4.55;;;17.10;99.90;;;;;;5067176;28;20029;-80
2022/05/15 07:12:32;;;;;;;5.43;3.95;;;17.10;99.90;;;;;;5049113;28;20039;-80
2022/05/15 07:14:57;;;;;;;9.27;4.57;;;17.20;99.90;;;;;;5067585;28;20096;-79
2022/05/15 07:17:23;;;;;;;7.90;4.13;;;17.20;99.90;;;;;;5067441;28;20037;-79
2022/05/15 07:19:49;;;;;;;6.15;3.70;;;17.30;99.90;;;;;;5067562;28;20028;-79
2022/05/15 07:22:14;;;;;;;8.48;4.18;;;17.40;99.90;;;;;;5067519;28;20032;-79
2022/05/15 07:24:40;;;;;;;8.27;4.70;;;17.50;99.90;;;;;;5056264;28;20029;-80
2022/05/15 07:27:08;;;;;;;9.32;5.03;;;17.60;99.90;;;;;;5053576;28;20123;-78
2022/05/15 07:29:36;;;;;;;5.85;5.05;;;17.70;99.90;;;;;;5063894;28;20020;-79
2022/05/15 07:32:03;;;;;;;6.07;4.75;;;17.70;99.90;;;;;;5068045;28;20032;-79
2022/05/15 07:34:29;;;;;;;9.30;4.72;;;17.80;99.90;;;;;;5067608;28;20519;-79
2022/05/15 07:36:54;;;;;;;7.35;4.70;;;17.90;99.90;;;;;;5071504;28;20070;-79
2022/05/15 07:39:21;;;;;;;7.35;4.55;;;17.90;99.90;;;;;;5075066;28;20055;-79
2022/05/15 07:41:48;;;;;;;6.72;4.30;;;18.00;99.90;;;;;;5073985;28;20088;-79
2022/05/15 07:44:15;;;;;;;8.15;4.20;;;18.10;99.90;;;;;;5056782;28;20444;-78
2022/05/15 07:46:41;;;;;;;6.57;4.47;;;18.10;99.90;;;;;;5073441;28;20026;-76
2022/05/15 07:49:07;;;;;;;8.00;4.40;;;18.30;99.90;;;;;;5067765;28;20123;-77
2022/05/15 07:51:33;;;;;;;5.75;4.38;;;18.40;99.90;;;;;;5067245;28;20052;-77
2022/05/15 07:53:59;;;;;;;6.40;3.97;;;18.50;99.90;;;;;;5066460;28;20619;-76
2022/05/15 07:56:25;;;;;;;6.28;3.30;;;18.50;99.90;;;;;;5065791;28;20051;-73
2022/05/15 07:58:51;;;;;;;7.38;4.20;;;18.60;99.90;;;;;;5073183;28;20060;-73
2022/05/15 08:01:16;;;;;;;8.00;3.60;;;18.70;99.90;;;;;;5055146;28;20111;-74
2022/05/15 08:03:45;;;;;;;6.70;4.07;;;18.80;99.90;;;;;;5073604;28;20035;-73
2022/05/15 08:08:58;;;;;;;6.72;3.95;;;19.00;99.90;;;;;;5073235;28;20104;-73
2022/05/15 08:11:27;;;;;;;7.78;3.97;;;19.20;99.90;;;;;;5075953;28;20029;-74
2022/05/15 08:13:56;;;;;;;5.38;4.28;;;19.30;99.90;;;;;;5075947;28;20025;-77
2022/05/15 08:16:23;;;;;;;5.97;3.80;;;19.30;99.90;;;;;;5058465;28;20143;-77
2022/05/15 08:24:18;;;;;;;6.70;4.18;;;19.50;99.90;;;;;;5073689;28;20047;-81
2022/05/15 08:26:45;;;;;;;9.25;4.72;;;19.50;99.90;;;;;;5054833;28;20029;-76
2022/05/15 08:29:11;;;;;;;7.78;4.50;;;19.50;99.90;;;;;;5073076;28;20016;-75
2022/05/15 08:31:36;;;;;;;10.27;3.95;;;19.50;99.90;;;;;;5072979;28;20389;-74
2022/05/15 08:34:02;;;;;;;7.18;4.13;;;19.70;99.90;;;;;;5072561;28;20111;-77
2022/05/15 08:36:30;;;;;;;7.80;4.55;;;19.80;99.90;;;;;;5057797;28;20099;-77
2022/05/15 08:38:56;;;;;;;6.85;3.78;;;19.80;99.90;;;;;;5052563;28;20108;-75
2022/05/15 08:41:42;;;;;;;7.57;4.10;;;19.80;99.90;;;;;;5052624;28;20112;-73
2022/05/15 08:44:22;;;;;;;6.47;3.78;;;20.00;99.90;;;;;;5052649;28;20425;-73
2022/05/15 08:46:48;;;;;;;5.22;3.30;;;20.00;99.90;;;;;;5052184;28;20021;-72
2022/05/15 08:49:26;;;;;;;6.57;4.03;;;20.00;99.90;;;;;;5051500;28;20138;-73
2022/05/15 08:52:15;;;;;;;5.90;3.40;;;20.20;99.90;;;;;;5052150;28;20084;-73
2022/05/15 08:54:51;;;;;;;5.43;3.92;;;20.30;99.90;;;;;;5052360;28;20500;-82
2022/05/15 08:57:34;;;;;;;7.65;3.63;;;20.50;99.90;;;;;;5055820;28;20068;-71
2022/05/15 09:00:01;;;;;;;6.70;3.50;;;20.60;99.90;;;;;;5076272;28;20020;-72
2022/05/15 09:02:29;;;;;;;5.80;3.53;;;20.60;99.90;;;;;;5076452;28;20052;-76
2022/05/15 09:04:54;;;;;;;9.05;3.80;;;20.70;99.90;;;;;;5058529;28;20366;-71
2022/05/15 09:07:42;;;;;;;6.45;3.55;;;20.80;99.90;;;;;;5060610;28;20036;-85
2022/05/15 09:10:31;;;;;;;5.40;3.05;;;20.90;99.90;;;;;;5073959;28;20111;-85
2022/05/15 09:13:09;;;;;;;5.30;3.00;;;21.10;99.90;;;;;;5074785;28;20028;-85
2022/05/15 09:15:41;;;;;;;5.70;3.10;;;21.20;99.90;;;;;;5056982;28;20501;-84
2022/05/15 09:18:21;;;;;;;4.07;3.03;;;21.30;99.90;;;;;;5075050;28;20043;-84
2022/05/15 09:20:52;;;;;;;5.03;2.65;;;21.50;99.90;;;;;;5074839;28;20059;-84
2022/05/15 09:23:34;;;;;;;5.90;2.60;;;21.50;99.90;;;;;;5075008;28;20024;-84
2022/05/15 09:26:10;;;;;;;10.30;6.20;;;21.70;99.90;;;;;;5056954;28;20523;-84
2022/05/15 09:28:49;;;;;;;7.00;3.38;;;22.00;99.90;;;;;;5056575;28;20374;-84
2022/05/15 09:31:40;;;;;;;5.55;2.60;;;22.40;99.90;;;;;;5074378;28;20044;-84
2022/05/15 09:34:23;;;;;;;7.05;3.60;;;22.80;99.90;;;;;;5074871;28;20021;-84
2022/05/15 09:36:50;;;;;;;5.65;2.50;;;23.00;99.90;;;;;;5074754;28;20052;-84
2022/05/15 09:39:24;;;;;;;4.50;2.33;;;23.30;99.90;;;;;;5074683;28;20031;-84
2022/05/15 09:44:54;;;;;;;6.45;2.30;;;23.70;99.90;;;;;;5073941;28;20170;-84
2022/05/15 09:47:50;;;;;;;4.53;1.95;;;23.90;99.90;;;;;;5074202;28;20653;-84
2022/05/15 09:50:43;;;;;;;3.72;2.17;;;23.90;99.90;;;;;;5032139;28;20748;-84
2022/05/15 09:53:13;;;;;;;3.17;2.17;;;24.10;99.90;;;;;;5074477;28;20025;-84
2022/05/15 09:56:01;;;;;;;5.25;2.28;;;24.30;99.90;;;;;;5059273;28;20047;-84
2022/05/15 09:59:04;;;;;;;5.53;2.25;;;24.50;99.90;;;;;;5054126;28;20028;-84
2022/05/15 10:02:08;;;;;;;7.28;2.40;;;24.40;99.50;;;;;;5064659;28;20036;-84
2022/05/15 10:04:48;;;;;;;3.38;1.90;;;24.40;97.00;;;;;;5054086;28;20567;-84
2022/05/15 10:07:33;;;;;;;4.80;2.17;;;24.60;97.50;;;;;;5043092;28;20057;-84
2022/05/15 10:10:20;;;;;;;9.23;2.05;;;24.60;93.50;;;;;;5073427;28;20104;-84
2022/05/15 10:19:52;;;;;;;3.28;1.40;;;24.90;95.00;;;;;;5056804;28;20024;-84
2022/05/15 10:22:50;;;;;;;4.13;1.40;;;25.00;94.20;;;;;;5058713;28;20485;-84
2022/05/15 10:25:43;;;;;;;4.32;1.70;;;24.90;92.60;;;;;;5074237;28;20656;-85
2022/05/15 10:28:33;;;;;;;4.72;1.85;;;24.80;94.30;;;;;;5054900;28;20377;-81
2022/05/15 10:31:04;;;;;;;4.40;1.58;;;24.90;94.80;;;;;;5073486;28;20033;-81
2022/05/15 10:33:44;;;;;;;3.90;1.90;;;25.00;91.90;;;;;;5073125;28;20032;-81
2022/05/15 10:36:47;;;;;;;2.90;1.60;;;24.90;92.30;;;;;;5072890;28;20036;-81
2022/05/15 10:39:18;;;;;;;18.05;2.20;;;24.90;91.10;;;;;;5048410;28;20041;-81
2022/05/15 10:42:23;;;;;;;4.22;2.15;;;24.90;94.10;;;;;;5051505;28;20487;-81
2022/05/15 10:45:15;;;;;;;4.47;1.80;;;24.90;91.90;;;;;;5072434;28;20040;-80
2022/05/15 10:48:00;;;;;;;3.83;1.85;;;25.00;94.30;;;;;;5054391;28;20516;-81
2022/05/15 10:50:31;;;;;;;4.97;2.10;;;25.10;90.30;;;;;;5070966;28;20145;-81
2022/05/15 10:59:02;;;;;;;4.88;2.10;;;25.20;92.40;;;;;;5060322;28;20075;-74
2022/05/15 11:01:55;;;;;;;4.10;1.60;;;25.30;90.40;;;;;;5048895;28;20017;-73
2022/05/15 11:04:51;;;;;;;4.05;1.65;;;25.50;91.00;;;;;;5066810;28;20035;-73
2022/05/15 11:07:25;;;;;;;3.00;1.80;;;25.70;89.80;;;;;;5063421;28;20537;-75
2022/05/15 11:10:07;;;;;;;4.47;1.73;;;26.10;92.40;;;;;;5070585;28;20036;-75
2022/05/15 11:12:51;;;;;;;4.28;1.50;;;26.30;87.50;;;;;;5071057;28;20032;-75
2022/05/15 11:15:44;;;;;;;4.85;2.22;;;26.50;88.10;;;;;;5052369;28;20025;-75
2022/05/15 11:18:28;;;;;;;4.72;2.08;;;26.60;85.50;;;;;;5070539;28;20105;-85
2022/05/15 11:21:00;;;;;;;4.22;1.88;;;26.80;81.10;;;;;;5069573;28;20494;-75
2022/05/15 11:23:42;;;;;;;4.70;1.88;;;26.70;84.80;;;;;;5070572;28;20029;-76
2022/05/15 11:26:31;;;;;;;3.15;1.65;;;26.60;84.00;;;;;;5070918;28;20190;-75
2022/05/15 11:29:00;;;;;;;3.50;1.40;;;26.70;87.90;;;;;;5053438;28;20505;-74
2022/05/15 11:31:36;;;;;;;4.47;1.58;;;27.00;78.00;;;;;;5052978;28;20024;-72
2022/05/15 11:34:07;;;;;;;3.17;1.60;;;26.80;79.30;;;;;;5073619;28;20028;-72
2022/05/15 11:36:43;;;;;;;3.45;1.40;;;26.80;85.10;;;;;;5073303;28;20046;-72
2022/05/15 11:39:14;;;;;;;5.22;1.92;;;27.00;87.80;;;;;;5073246;28;20025;-71
2022/05/15 11:41:42;;;;;;;3.88;1.58;;;27.10;84.00;;;;;;5073609;28;20020;-71
2022/05/15 11:44:34;;;;;;;3.20;1.80;;;27.20;85.00;;;;;;5073141;28;20020;-73
2022/05/15 11:47:03;;;;;;;4.45;1.75;;;27.40;80.80;;;;;;5073005;28;20028;-73
2022/05/15 11:49:38;;;;;;;5.60;1.95;;;27.50;76.60;;;;;;5073367;28;20021;-73
2022/05/15 11:52:03;;;;;;;3.83;1.50;;;27.80;72.10;;;;;;5072789;28;20428;-76
2022/05/15 11:54:38;;;;;;;4.78;2.00;;;27.90;73.50;;;;;;5067256;28;20028;-72
2022/05/15 11:57:30;;;;;;;3.03;1.50;;;28.00;77.30;;;;;;5035068;28;20029;-73
2022/05/15 11:59:58;;;;;;;5.05;2.03;;;27.90;76.50;;;;;;5053024;28;20163;-73
2022/05/15 12:02:30;;;;;;;3.40;1.55;;;28.20;75.00;;;;;;5053318;28;20458;-74
2022/05/15 12:05:03;;;;;;;3.35;1.60;;;28.20;73.50;;;;;;5053264;28;20075;-73
2022/05/15 12:07:48;;;;;;;4.50;1.80;;;28.00;74.80;;;;;;5052646;28;20220;-78
2022/05/15 12:10:40;;;;;;;4.43;1.80;;;28.40;75.70;;;;;;5054152;28;20366;-78
2022/05/15 12:13:10;;;;;;;3.83;1.95;;;28.70;74.50;;;;;;5026800;28;20110;-79
2022/05/15 12:15:44;;;;;;;5.25;1.80;;;28.70;73.60;;;;;;5053029;28;20024;-78
2022/05/15 12:18:27;;;;;;;6.70;1.90;;;29.10;72.40;;;;;;5052232;28;20354;-78
2022/05/15 12:20:54;;;;;;;4.10;1.77;;;29.10;70.90;;;;;;5049233;28;20079;-78
2022/05/15 12:23:23;;;;;;;3.65;1.90;;;28.90;69.70;;;;;;5049318;28;20492;-78
2022/05/15 12:26:17;;;;;;;3.30;1.70;;;29.00;70.30;;;;;;5069646;28;20024;-78
2022/05/15 12:29:17;;;;;;;5.28;1.85;;;29.00;71.80;;;;;;5069640;28;20079;-78
2022/05/15 12:31:45;;;;;;;5.45;1.80;;;29.00;71.60;;;;;;5070845;28;20032;-78
2022/05/15 12:34:15;;;;;;;2.85;1.45;;;29.00;73.70;;;;;;5074054;28;20073;-78
2022/05/15 12:36:53;;;;;;;4.85;2.03;;;29.20;73.90;;;;;;5073641;28;20044;-79
2022/05/15 12:39:24;;;;;;;4.22;1.75;;;29.00;72.60;;;;;;5073123;28;20021;-79
2022/05/15 12:41:50;;;;;;;4.15;1.77;;;28.90;75.60;;;;;;5073949;28;20207;-79
2022/05/15 12:44:34;;;;;;;8.38;1.77;;;29.00;69.80;;;;;;5057747;28;20172;-74
2022/05/15 12:47:03;;;;;;;4.05;2.05;;;29.00;71.10;;;;;;5076791;28;20025;-74
2022/05/15 12:49:32;;;;;;;4.00;2.10;;;29.40;70.00;;;;;;5076506;28;20448;-72
2022/05/15 12:52:13;;;;;;;4.45;2.00;;;29.40;70.70;;;;;;5076328;28;20056;-72
2022/05/15 12:54:40;;;;;;;4.47;1.98;;;29.50;69.00;;;;;;5076382;28;20029;-72
2022/05/15 12:57:10;;;;;;;4.47;1.52;;;29.70;71.00;;;;;;5076222;28;20419;-72
2022/05/15 12:59:40;;;;;;;5.00;1.70;;;29.60;70.80;;;;;;5076784;28;20017;-72
2022/05/15 13:02:32;;;;;;;4.13;1.70;;;29.60;72.70;;;;;;5076093;28;20101;-72
2022/05/15 13:05:00;;;;;;;2.65;1.88;;;29.50;70.20;;;;;;5076390;28;20024;-72
2022/05/15 13:07:37;;;;;;;5.25;1.80;;;29.30;71.10;;;;;;5075996;28;20496;-72
2022/05/15 13:10:09;;;;;;;3.00;1.85;;;29.00;72.10;;;;;;5057935;28;20041;-72
2022/05/15 13:12:48;;;;;;;3.08;1.75;;;29.10;71.50;;;;;;5076086;28;20020;-72
2022/05/15 13:15:18;;;;;;;4.25;1.80;;;29.10;70.90;;;;;;5057937;28;20039;-72
2022/05/15 13:17:44;;;;;;;4.05;1.73;;;28.90;68.80;;;;;;5075765;28;20028;-72
2022/05/15 13:20:16;;;;;;;6.78;1.95;;;28.60;68.30;;;;;;5075835;28;20458;-72
2022/05/15 13:22:43;;;;;;;3.00;1.85;;;28.40;68.40;;;;;;5076337;28;20632;-72
2022/05/15 13:25:21;;;;;;;3.05;1.60;;;28.20;70.00;;;;;;5075797;28;20016;-72
2022/05/15 13:27:48;;;;;;;4.70;2.17;;;28.10;69.40;;;;;;5076111;28;20020;-72
2022/05/15 13:30:21;;;;;;;5.15;1.75;;;28.40;69.30;;;;;;5057687;28;20032;-72
2022/05/15 13:32:51;;;;;;;6.03;1.65;;;28.30;69.40;;;;;;5075599;28;20029;-74
2022/05/15 13:35:17;;;;;;;5.28;1.95;;;28.30;70.40;;;;;;5075649;28;20032;-73